Birmingham, United Kingdom
Current Conditions -  °F | °C
As of 7:20 PM on Thursday 30 Oct 2014 (Local Time) from EGBB Reporting Station
Scattered Clouds Scattered Clouds  
Wind Chill: 59°   Ceiling: Unl
Heat Index: 59°   Visibility: 5mi
Dew Point: 57°   Wind: 9mph
Humidity: 94%   Direction: 150°SSE
Pressure: 30"   Gusts: NA
Location:  52.48°N, 1.89°W
Report Text: EGBB 301920Z 15008KT 8000 FEW014 SCT042 15/14 Q1016
Loading
Personal Weather Stations






























Interactive Weather Map
Tropical Storm Tracking
New forecast layout! Learn more

10-Day Weather Forecast

Advertisements
Track Severe Weather on mobile